sensor_id;sensor_type;location;lat;lon;timestamp;P1;durP1;ratioP1;P2;durP2;ratioP2
76379;SDS011;65201;21.060;105.826;2023-04-25T00:00:54;22.58;;;16.13;;
76379;SDS011;65201;21.060;105.826;2023-04-25T00:03:20;26.80;;;16.73;;
76379;SDS011;65201;21.060;105.826;2023-04-25T00:05:47;41.85;;;21.38;;
76379;SDS011;65201;21.060;105.826;2023-04-25T00:08:14;43.10;;;21.60;;
76379;SDS011;65201;21.060;105.826;2023-04-25T00:10:40;42.97;;;21.55;;
76379;SDS011;65201;21.060;105.826;2023-04-25T00:13:06;40.95;;;20.75;;
76379;SDS011;65201;21.060;105.826;2023-04-25T00:15:33;37.88;;;19.70;;
76379;SDS011;65201;21.060;105.826;2023-04-25T00:18:01;37.17;;;19.98;;
76379;SDS011;65201;21.060;105.826;2023-04-25T00:20:48;40.33;;;19.07;;
76379;SDS011;65201;21.060;105.826;2023-04-25T00:23:16;35.00;;;18.50;;
76379;SDS011;65201;21.060;105.826;2023-04-25T00:25:49;33.40;;;18.52;;
76379;SDS011;65201;21.060;105.826;2023-04-25T00:28:16;35.92;;;19.45;;
76379;SDS011;65201;21.060;105.826;2023-04-25T00:30:42;33.85;;;19.02;;
76379;SDS011;65201;21.060;105.826;2023-04-25T00:33:09;28.40;;;18.30;;
76379;SDS011;65201;21.060;105.826;2023-04-25T00:35:35;28.65;;;17.95;;
76379;SDS011;65201;21.060;105.826;2023-04-25T00:38:01;38.08;;;18.50;;
76379;SDS011;65201;21.060;105.826;2023-04-25T00:40:28;34.95;;;18.30;;
76379;SDS011;65201;21.060;105.826;2023-04-25T00:42:54;31.60;;;17.92;;
76379;SDS011;65201;21.060;105.826;2023-04-25T00:45:20;28.10;;;16.80;;
76379;SDS011;65201;21.060;105.826;2023-04-25T00:47:46;32.40;;;17.58;;
76379;SDS011;65201;21.060;105.826;2023-04-25T00:50:16;30.73;;;18.23;;
76379;SDS011;65201;21.060;105.826;2023-04-25T00:52:43;32.10;;;17.73;;
76379;SDS011;65201;21.060;105.826;2023-04-25T00:55:10;29.85;;;17.73;;
76379;SDS011;65201;21.060;105.826;2023-04-25T00:57:37;30.50;;;17.63;;
76379;SDS011;65201;21.060;105.826;2023-04-25T01:00:07;29.17;;;16.77;;
76379;SDS011;65201;21.060;105.826;2023-04-25T01:05:33;28.65;;;17.70;;
76379;SDS011;65201;21.060;105.826;2023-04-25T01:07:59;29.15;;;18.00;;
76379;SDS011;65201;21.060;105.826;2023-04-25T01:10:26;28.07;;;18.20;;
76379;SDS011;65201;21.060;105.826;2023-04-25T01:12:52;31.40;;;17.95;;
76379;SDS011;65201;21.060;105.826;2023-04-25T01:15:18;28.67;;;17.50;;
76379;SDS011;65201;21.060;105.826;2023-04-25T01:17:45;28.75;;;18.05;;
76379;SDS011;65201;21.060;105.826;2023-04-25T01:20:12;30.30;;;18.15;;
76379;SDS011;65201;21.060;105.826;2023-04-25T01:22:39;28.23;;;17.40;;
76379;SDS011;65201;21.060;105.826;2023-04-25T01:25:06;29.17;;;17.02;;
76379;SDS011;65201;21.060;105.826;2023-04-25T01:27:33;32.03;;;17.83;;
76379;SDS011;65201;21.060;105.826;2023-04-25T01:29:59;29.70;;;18.00;;
76379;SDS011;65201;21.060;105.826;2023-04-25T01:32:25;29.70;;;17.15;;
76379;SDS011;65201;21.060;105.826;2023-04-25T01:34:52;27.77;;;16.47;;
76379;SDS011;65201;21.060;105.826;2023-04-25T01:37:18;26.77;;;16.25;;
76379;SDS011;65201;21.060;105.826;2023-04-25T01:39:44;24.58;;;15.68;;
76379;SDS011;65201;21.060;105.826;2023-04-25T01:42:12;26.77;;;16.23;;
76379;SDS011;65201;21.060;105.826;2023-04-25T01:44:39;29.67;;;15.70;;
76379;SDS011;65201;21.060;105.826;2023-04-25T01:47:05;24.57;;;14.87;;
76379;SDS011;65201;21.060;105.826;2023-04-25T01:49:31;24.75;;;15.45;;
76379;SDS011;65201;21.060;105.826;2023-04-25T01:51:57;22.98;;;14.82;;
76379;SDS011;65201;21.060;105.826;2023-04-25T01:54:23;24.20;;;15.63;;
76379;SDS011;65201;21.060;105.826;2023-04-25T01:56:50;20.75;;;14.10;;
76379;SDS011;65201;21.060;105.826;2023-04-25T01:59:18;24.40;;;14.83;;
76379;SDS011;65201;21.060;105.826;2023-04-25T02:01:45;22.52;;;14.45;;
76379;SDS011;65201;21.060;105.826;2023-04-25T02:04:11;19.73;;;13.30;;
76379;SDS011;65201;21.060;105.826;2023-04-25T02:06:38;21.58;;;13.30;;
76379;SDS011;65201;21.060;105.826;2023-04-25T02:09:04;24.58;;;13.40;;
76379;SDS011;65201;21.060;105.826;2023-04-25T02:11:30;19.70;;;12.93;;
76379;SDS011;65201;21.060;105.826;2023-04-25T02:13:56;20.30;;;13.13;;
76379;SDS011;65201;21.060;105.826;2023-04-25T02:16:22;19.85;;;12.18;;
76379;SDS011;65201;21.060;105.826;2023-04-25T02:18:51;19.27;;;12.48;;
76379;SDS011;65201;21.060;105.826;2023-04-25T02:21:21;17.83;;;12.38;;
76379;SDS011;65201;21.060;105.826;2023-04-25T02:23:47;15.87;;;11.47;;
76379;SDS011;65201;21.060;105.826;2023-04-25T02:26:14;19.88;;;11.95;;
76379;SDS011;65201;21.060;105.826;2023-04-25T02:28:41;17.52;;;11.82;;
76379;SDS011;65201;21.060;105.826;2023-04-25T02:31:07;21.27;;;11.75;;
76379;SDS011;65201;21.060;105.826;2023-04-25T02:33:33;21.17;;;11.65;;
76379;SDS011;65201;21.060;105.826;2023-04-25T02:35:59;20.23;;;11.67;;
76379;SDS011;65201;21.060;105.826;2023-04-25T02:38:26;16.52;;;11.35;;
76379;SDS011;65201;21.060;105.826;2023-04-25T02:40:52;16.27;;;11.18;;
76379;SDS011;65201;21.060;105.826;2023-04-25T02:43:18;19.10;;;11.15;;
76379;SDS011;65201;21.060;105.826;2023-04-25T02:45:44;17.38;;;10.90;;
76379;SDS011;65201;21.060;105.826;2023-04-25T02:48:10;16.33;;;10.13;;
76379;SDS011;65201;21.060;105.826;2023-04-25T02:50:36;16.95;;;10.85;;
76379;SDS011;65201;21.060;105.826;2023-04-25T02:53:03;17.08;;;10.55;;
76379;SDS011;65201;21.060;105.826;2023-04-25T02:55:29;16.77;;;10.48;;
76379;SDS011;65201;21.060;105.826;2023-04-25T02:57:55;17.80;;;10.55;;
76379;SDS011;65201;21.060;105.826;2023-04-25T03:00:21;16.80;;;10.40;;
76379;SDS011;65201;21.060;105.826;2023-04-25T03:02:48;16.88;;;10.18;;
76379;SDS011;65201;21.060;105.826;2023-04-25T03:05:14;13.98;;;10.00;;
76379;SDS011;65201;21.060;105.826;2023-04-25T03:07:41;12.98;;;9.55;;
76379;SDS011;65201;21.060;105.826;2023-04-25T03:10:09;17.48;;;9.98;;
76379;SDS011;65201;21.060;105.826;2023-04-25T03:12:36;16.90;;;9.53;;
76379;SDS011;65201;21.060;105.826;2023-04-25T03:15:02;16.80;;;9.18;;
76379;SDS011;65201;21.060;105.826;2023-04-25T03:17:29;14.50;;;9.15;;
76379;SDS011;65201;21.060;105.826;2023-04-25T03:19:55;19.35;;;9.40;;
76379;SDS011;65201;21.060;105.826;2023-04-25T03:22:21;12.07;;;9.13;;
76379;SDS011;65201;21.060;105.826;2023-04-25T03:24:48;12.40;;;8.77;;
76379;SDS011;65201;21.060;105.826;2023-04-25T03:27:14;18.23;;;8.57;;
76379;SDS011;65201;21.060;105.826;2023-04-25T03:29:40;14.32;;;8.23;;
76379;SDS011;65201;21.060;105.826;2023-04-25T03:32:06;16.67;;;8.63;;
76379;SDS011;65201;21.060;105.826;2023-04-25T03:34:33;11.45;;;7.93;;
76379;SDS011;65201;21.060;105.826;2023-04-25T03:36:59;14.50;;;7.93;;
76379;SDS011;65201;21.060;105.826;2023-04-25T03:39:26;13.57;;;7.65;;
76379;SDS011;65201;21.060;105.826;2023-04-25T03:41:52;13.18;;;7.93;;
76379;SDS011;65201;21.060;105.826;2023-04-25T03:44:18;13.38;;;7.80;;
76379;SDS011;65201;21.060;105.826;2023-04-25T03:46:44;12.63;;;7.95;;
76379;SDS011;65201;21.060;105.826;2023-04-25T03:49:11;11.63;;;7.83;;
76379;SDS011;65201;21.060;105.826;2023-04-25T03:51:37;10.75;;;7.05;;
76379;SDS011;65201;21.060;105.826;2023-04-25T03:54:03;11.35;;;7.47;;
76379;SDS011;65201;21.060;105.826;2023-04-25T03:56:29;12.70;;;7.00;;
76379;SDS011;65201;21.060;105.826;2023-04-25T03:58:56;11.02;;;7.25;;
76379;SDS011;65201;21.060;105.826;2023-04-25T04:01:22;10.87;;;6.93;;
76379;SDS011;65201;21.060;105.826;2023-04-25T04:03:48;11.52;;;7.13;;
76379;SDS011;65201;21.060;105.826;2023-04-25T04:06:14;12.65;;;6.35;;
76379;SDS011;65201;21.060;105.826;2023-04-25T04:08:41;11.90;;;6.82;;
76379;SDS011;65201;21.060;105.826;2023-04-25T04:11:07;10.13;;;6.38;;
76379;SDS011;65201;21.060;105.826;2023-04-25T04:13:33;9.83;;;6.37;;
76379;SDS011;65201;21.060;105.826;2023-04-25T04:15:59;8.38;;;6.28;;
76379;SDS011;65201;21.060;105.826;2023-04-25T04:18:25;9.55;;;6.13;;
76379;SDS011;65201;21.060;105.826;2023-04-25T04:20:52;9.15;;;6.05;;
76379;SDS011;65201;21.060;105.826;2023-04-25T04:23:18;10.98;;;6.45;;
76379;SDS011;65201;21.060;105.826;2023-04-25T04:25:45;9.63;;;6.07;;
76379;SDS011;65201;21.060;105.826;2023-04-25T04:28:12;13.75;;;5.88;;
76379;SDS011;65201;21.060;105.826;2023-04-25T04:30:39;16.02;;;5.95;;
76379;SDS011;65201;21.060;105.826;2023-04-25T04:33:06;9.48;;;5.47;;
76379;SDS011;65201;21.060;105.826;2023-04-25T04:35:32;15.00;;;6.32;;
76379;SDS011;65201;21.060;105.826;2023-04-25T04:37:58;11.00;;;5.70;;
76379;SDS011;65201;21.060;105.826;2023-04-25T04:40:25;13.35;;;5.95;;
76379;SDS011;65201;21.060;105.826;2023-04-25T04:42:51;9.23;;;5.47;;
76379;SDS011;65201;21.060;105.826;2023-04-25T04:45:18;9.00;;;5.63;;
76379;SDS011;65201;21.060;105.826;2023-04-25T04:47:46;10.63;;;5.70;;
76379;SDS011;65201;21.060;105.826;2023-04-25T04:50:14;10.37;;;5.97;;
76379;SDS011;65201;21.060;105.826;2023-04-25T04:52:40;12.48;;;6.70;;
76379;SDS011;65201;21.060;105.826;2023-04-25T04:55:06;11.73;;;6.40;;
76379;SDS011;65201;21.060;105.826;2023-04-25T04:57:33;8.95;;;5.80;;
76379;SDS011;65201;21.060;105.826;2023-04-25T05:00:00;8.32;;;5.47;;
76379;SDS011;65201;21.060;105.826;2023-04-25T05:02:26;11.07;;;5.70;;
76379;SDS011;65201;21.060;105.826;2023-04-25T05:04:53;11.63;;;5.43;;
76379;SDS011;65201;21.060;105.826;2023-04-25T05:07:19;8.48;;;5.93;;
76379;SDS011;65201;21.060;105.826;2023-04-25T05:09:45;9.52;;;5.90;;
76379;SDS011;65201;21.060;105.826;2023-04-25T05:12:12;13.65;;;6.00;;
76379;SDS011;65201;21.060;105.826;2023-04-25T05:14:38;10.70;;;5.97;;
76379;SDS011;65201;21.060;105.826;2023-04-25T05:17:04;10.57;;;6.18;;
76379;SDS011;65201;21.060;105.826;2023-04-25T05:19:33;10.02;;;5.55;;
76379;SDS011;65201;21.060;105.826;2023-04-25T05:22:00;9.93;;;5.60;;
76379;SDS011;65201;21.060;105.826;2023-04-25T05:24:26;11.10;;;5.65;;
76379;SDS011;65201;21.060;105.826;2023-04-25T05:26:52;10.67;;;5.90;;
76379;SDS011;65201;21.060;105.826;2023-04-25T05:29:18;10.02;;;5.80;;
76379;SDS011;65201;21.060;105.826;2023-04-25T05:31:44;10.23;;;5.82;;
76379;SDS011;65201;21.060;105.826;2023-04-25T05:34:11;9.40;;;5.70;;
76379;SDS011;65201;21.060;105.826;2023-04-25T05:36:37;9.20;;;5.47;;
76379;SDS011;65201;21.060;105.826;2023-04-25T05:39:03;10.27;;;5.57;;
76379;SDS011;65201;21.060;105.826;2023-04-25T05:41:30;9.68;;;5.18;;
76379;SDS011;65201;21.060;105.826;2023-04-25T05:43:56;8.82;;;5.30;;
76379;SDS011;65201;21.060;105.826;2023-04-25T05:46:23;10.60;;;5.55;;
76379;SDS011;65201;21.060;105.826;2023-04-25T05:51:54;9.27;;;5.40;;
76379;SDS011;65201;21.060;105.826;2023-04-25T05:54:22;7.03;;;5.13;;
76379;SDS011;65201;21.060;105.826;2023-04-25T05:56:48;7.95;;;5.20;;
76379;SDS011;65201;21.060;105.826;2023-04-25T05:59:14;12.50;;;5.57;;
76379;SDS011;65201;21.060;105.826;2023-04-25T06:01:41;8.48;;;4.90;;
76379;SDS011;65201;21.060;105.826;2023-04-25T06:04:07;7.37;;;4.80;;
76379;SDS011;65201;21.060;105.826;2023-04-25T06:06:33;9.43;;;5.15;;
76379;SDS011;65201;21.060;105.826;2023-04-25T06:09:00;14.00;;;5.15;;
76379;SDS011;65201;21.060;105.826;2023-04-25T06:11:26;8.50;;;4.78;;
76379;SDS011;65201;21.060;105.826;2023-04-25T06:13:52;6.43;;;4.18;;
76379;SDS011;65201;21.060;105.826;2023-04-25T06:16:18;6.53;;;4.47;;
76379;SDS011;65201;21.060;105.826;2023-04-25T06:18:45;6.00;;;4.28;;
76379;SDS011;65201;21.060;105.826;2023-04-25T06:21:11;8.25;;;4.40;;
76379;SDS011;65201;21.060;105.826;2023-04-25T06:23:37;9.80;;;4.68;;
76379;SDS011;65201;21.060;105.826;2023-04-25T06:26:03;8.30;;;4.80;;
76379;SDS011;65201;21.060;105.826;2023-04-25T06:28:29;6.77;;;4.30;;
76379;SDS011;65201;21.060;105.826;2023-04-25T06:30:55;6.13;;;4.30;;
76379;SDS011;65201;21.060;105.826;2023-04-25T06:33:21;8.07;;;4.50;;
76379;SDS011;65201;21.060;105.826;2023-04-25T06:35:49;6.40;;;4.13;;
76379;SDS011;65201;21.060;105.826;2023-04-25T06:38:15;6.90;;;4.22;;
76379;SDS011;65201;21.060;105.826;2023-04-25T06:40:41;6.33;;;4.30;;
76379;SDS011;65201;21.060;105.826;2023-04-25T06:43:08;7.55;;;4.10;;
76379;SDS011;65201;21.060;105.826;2023-04-25T06:45:34;10.32;;;4.28;;
76379;SDS011;65201;21.060;105.826;2023-04-25T06:48:00;6.72;;;3.97;;
76379;SDS011;65201;21.060;105.826;2023-04-25T06:50:26;14.85;;;6.68;;
76379;SDS011;65201;21.060;105.826;2023-04-25T06:52:53;19.43;;;8.97;;
76379;SDS011;65201;21.060;105.826;2023-04-25T06:55:19;22.20;;;9.60;;
76379;SDS011;65201;21.060;105.826;2023-04-25T06:57:45;25.23;;;11.25;;
76379;SDS011;65201;21.060;105.826;2023-04-25T07:00:12;28.05;;;12.00;;
76379;SDS011;65201;21.060;105.826;2023-04-25T07:02:38;33.72;;;13.90;;
76379;SDS011;65201;21.060;105.826;2023-04-25T07:05:05;36.50;;;14.05;;
76379;SDS011;65201;21.060;105.826;2023-04-25T07:07:32;33.60;;;14.87;;
76379;SDS011;65201;21.060;105.826;2023-04-25T07:09:58;28.65;;;13.90;;
76379;SDS011;65201;21.060;105.826;2023-04-25T07:12:24;36.65;;;13.75;;
76379;SDS011;65201;21.060;105.826;2023-04-25T07:14:50;30.73;;;12.75;;
76379;SDS011;65201;21.060;105.826;2023-04-25T07:17:16;33.15;;;13.02;;
76379;SDS011;65201;21.060;105.826;2023-04-25T07:19:43;34.53;;;12.87;;
76379;SDS011;65201;21.060;105.826;2023-04-25T07:22:09;24.40;;;11.27;;
76379;SDS011;65201;21.060;105.826;2023-04-25T07:24:35;29.50;;;11.90;;
76379;SDS011;65201;21.060;105.826;2023-04-25T07:27:01;24.08;;;10.70;;
76379;SDS011;65201;21.060;105.826;2023-04-25T07:29:28;24.92;;;11.13;;
76379;SDS011;65201;21.060;105.826;2023-04-25T07:31:55;25.97;;;11.47;;
76379;SDS011;65201;21.060;105.826;2023-04-25T07:34:21;26.55;;;10.90;;
76379;SDS011;65201;21.060;105.826;2023-04-25T07:36:48;26.25;;;10.40;;
76379;SDS011;65201;21.060;105.826;2023-04-25T07:39:14;26.38;;;10.57;;
76379;SDS011;65201;21.060;105.826;2023-04-25T07:41:40;25.17;;;10.95;;
76379;SDS011;65201;21.060;105.826;2023-04-25T07:44:06;24.87;;;10.17;;
76379;SDS011;65201;21.060;105.826;2023-04-25T07:46:32;24.33;;;10.30;;
76379;SDS011;65201;21.060;105.826;2023-04-25T07:48:59;24.70;;;10.07;;
76379;SDS011;65201;21.060;105.826;2023-04-25T07:51:25;22.08;;;10.10;;
76379;SDS011;65201;21.060;105.826;2023-04-25T07:53:51;24.30;;;10.75;;
76379;SDS011;65201;21.060;105.826;2023-04-25T07:56:17;22.93;;;10.10;;
76379;SDS011;65201;21.060;105.826;2023-04-25T07:58:43;20.83;;;10.43;;
76379;SDS011;65201;21.060;105.826;2023-04-25T08:01:09;19.80;;;10.55;;
76379;SDS011;65201;21.060;105.826;2023-04-25T08:03:36;22.20;;;11.05;;
76379;SDS011;65201;21.060;105.826;2023-04-25T08:06:02;22.65;;;10.65;;
76379;SDS011;65201;21.060;105.826;2023-04-25T08:08:28;23.87;;;10.53;;
76379;SDS011;65201;21.060;105.826;2023-04-25T08:10:54;23.00;;;10.52;;
76379;SDS011;65201;21.060;105.826;2023-04-25T08:13:20;23.50;;;10.52;;
76379;SDS011;65201;21.060;105.826;2023-04-25T08:15:47;20.85;;;9.95;;
76379;SDS011;65201;21.060;105.826;2023-04-25T08:18:13;20.33;;;10.13;;
76379;SDS011;65201;21.060;105.826;2023-04-25T08:20:39;23.53;;;10.20;;
76379;SDS011;65201;21.060;105.826;2023-04-25T08:23:06;19.02;;;10.52;;
76379;SDS011;65201;21.060;105.826;2023-04-25T08:25:32;19.60;;;9.73;;
76379;SDS011;65201;21.060;105.826;2023-04-25T08:27:58;18.48;;;9.88;;
76379;SDS011;65201;21.060;105.826;2023-04-25T08:30:25;17.50;;;9.65;;
76379;SDS011;65201;21.060;105.826;2023-04-25T08:32:52;21.13;;;10.07;;
76379;SDS011;65201;21.060;105.826;2023-04-25T08:35:18;23.77;;;10.20;;
76379;SDS011;65201;21.060;105.826;2023-04-25T08:37:44;16.88;;;9.88;;
76379;SDS011;65201;21.060;105.826;2023-04-25T08:40:11;18.02;;;9.80;;
76379;SDS011;65201;21.060;105.826;2023-04-25T08:42:37;22.45;;;10.05;;
76379;SDS011;65201;21.060;105.826;2023-04-25T08:45:04;20.53;;;10.50;;
76379;SDS011;65201;21.060;105.826;2023-04-25T08:47:30;20.13;;;10.50;;
76379;SDS011;65201;21.060;105.826;2023-04-25T08:50:00;18.20;;;10.02;;
76379;SDS011;65201;21.060;105.826;2023-04-25T08:52:28;21.52;;;9.68;;
76379;SDS011;65201;21.060;105.826;2023-04-25T08:54:56;19.10;;;10.25;;
76379;SDS011;65201;21.060;105.826;2023-04-25T08:57:23;22.60;;;10.00;;
76379;SDS011;65201;21.060;105.826;2023-04-25T08:59:51;18.08;;;9.57;;
76379;SDS011;65201;21.060;105.826;2023-04-25T09:02:17;18.15;;;10.00;;
76379;SDS011;65201;21.060;105.826;2023-04-25T09:04:46;19.88;;;9.43;;
76379;SDS011;65201;21.060;105.826;2023-04-25T09:07:12;18.80;;;9.82;;
76379;SDS011;65201;21.060;105.826;2023-04-25T09:09:41;21.30;;;9.70;;
76379;SDS011;65201;21.060;105.826;2023-04-25T09:12:07;18.33;;;9.80;;
76379;SDS011;65201;21.060;105.826;2023-04-25T09:14:33;19.42;;;9.80;;
76379;SDS011;65201;21.060;105.826;2023-04-25T09:17:00;20.95;;;10.23;;
76379;SDS011;65201;21.060;105.826;2023-04-25T09:19:27;21.45;;;9.35;;
76379;SDS011;65201;21.060;105.826;2023-04-25T09:21:54;17.20;;;9.10;;
76379;SDS011;65201;21.060;105.826;2023-04-25T09:24:31;18.10;;;9.50;;
76379;SDS011;65201;21.060;105.826;2023-04-25T09:26:57;19.13;;;9.30;;
76379;SDS011;65201;21.060;105.826;2023-04-25T09:29:30;13.95;;;8.80;;
76379;SDS011;65201;21.060;105.826;2023-04-25T09:34:45;15.33;;;8.77;;
76379;SDS011;65201;21.060;105.826;2023-04-25T09:37:16;20.23;;;9.45;;
76379;SDS011;65201;21.060;105.826;2023-04-25T09:39:44;19.48;;;8.82;;
76379;SDS011;65201;21.060;105.826;2023-04-25T09:42:10;16.50;;;8.52;;
76379;SDS011;65201;21.060;105.826;2023-04-25T09:44:36;16.30;;;8.55;;
76379;SDS011;65201;21.060;105.826;2023-04-25T09:47:02;19.80;;;8.77;;
76379;SDS011;65201;21.060;105.826;2023-04-25T09:49:28;24.10;;;8.63;;
76379;SDS011;65201;21.060;105.826;2023-04-25T09:51:55;18.15;;;8.25;;
76379;SDS011;65201;21.060;105.826;2023-04-25T09:54:25;15.68;;;7.80;;
76379;SDS011;65201;21.060;105.826;2023-04-25T09:56:51;19.65;;;8.13;;
76379;SDS011;65201;21.060;105.826;2023-04-25T09:59:21;17.20;;;8.27;;
76379;SDS011;65201;21.060;105.826;2023-04-25T10:01:50;17.92;;;8.50;;
76379;SDS011;65201;21.060;105.826;2023-04-25T10:04:24;15.07;;;7.60;;
76379;SDS011;65201;21.060;105.826;2023-04-25T10:06:51;17.35;;;7.57;;
76379;SDS011;65201;21.060;105.826;2023-04-25T10:09:21;16.25;;;7.60;;
76379;SDS011;65201;21.060;105.826;2023-04-25T10:11:50;13.23;;;7.53;;
76379;SDS011;65201;21.060;105.826;2023-04-25T10:14:17;18.30;;;7.57;;
76379;SDS011;65201;21.060;105.826;2023-04-25T10:16:44;18.48;;;7.70;;
76379;SDS011;65201;21.060;105.826;2023-04-25T10:19:11;18.20;;;7.38;;
76379;SDS011;65201;21.060;105.826;2023-04-25T10:21:40;16.38;;;7.90;;
76379;SDS011;65201;21.060;105.826;2023-04-25T10:24:10;18.23;;;7.53;;
76379;SDS011;65201;21.060;105.826;2023-04-25T10:26:37;18.90;;;7.57;;
76379;SDS011;65201;21.060;105.826;2023-04-25T10:29:03;12.07;;;7.03;;
76379;SDS011;65201;21.060;105.826;2023-04-25T10:31:30;19.92;;;7.78;;
76379;SDS011;65201;21.060;105.826;2023-04-25T10:33:56;17.05;;;7.78;;
76379;SDS011;65201;21.060;105.826;2023-04-25T10:36:23;18.65;;;7.63;;
76379;SDS011;65201;21.060;105.826;2023-04-25T10:38:50;17.90;;;7.80;;
76379;SDS011;65201;21.060;105.826;2023-04-25T10:41:19;16.88;;;8.10;;
76379;SDS011;65201;21.060;105.826;2023-04-25T10:43:47;21.20;;;8.20;;
76379;SDS011;65201;21.060;105.826;2023-04-25T10:48:46;19.83;;;9.50;;
76379;SDS011;65201;21.060;105.826;2023-04-25T10:51:17;18.80;;;9.00;;
76379;SDS011;65201;21.060;105.826;2023-04-25T10:53:47;22.70;;;9.32;;
76379;SDS011;65201;21.060;105.826;2023-04-25T10:56:17;33.10;;;9.70;;
76379;SDS011;65201;21.060;105.826;2023-04-25T10:58:44;23.38;;;9.88;;
76379;SDS011;65201;21.060;105.826;2023-04-25T11:01:11;29.80;;;10.80;;
76379;SDS011;65201;21.060;105.826;2023-04-25T11:03:41;29.87;;;9.90;;
76379;SDS011;65201;21.060;105.826;2023-04-25T11:08:47;24.58;;;10.45;;
76379;SDS011;65201;21.060;105.826;2023-04-25T11:11:14;33.33;;;10.43;;
76379;SDS011;65201;21.060;105.826;2023-04-25T11:13:40;23.05;;;10.30;;
76379;SDS011;65201;21.060;105.826;2023-04-25T11:16:07;24.53;;;10.03;;
76379;SDS011;65201;21.060;105.826;2023-04-25T11:18:33;23.45;;;9.52;;
76379;SDS011;65201;21.060;105.826;2023-04-25T11:20:59;25.83;;;9.93;;
76379;SDS011;65201;21.060;105.826;2023-04-25T11:23:26;21.40;;;9.18;;
76379;SDS011;65201;21.060;105.826;2023-04-25T11:25:52;27.48;;;9.48;;
76379;SDS011;65201;21.060;105.826;2023-04-25T11:28:22;19.17;;;9.37;;
76379;SDS011;65201;21.060;105.826;2023-04-25T11:30:48;24.63;;;9.13;;
76379;SDS011;65201;21.060;105.826;2023-04-25T11:33:18;22.30;;;9.07;;
76379;SDS011;65201;21.060;105.826;2023-04-25T11:35:48;17.77;;;8.90;;
76379;SDS011;65201;21.060;105.826;2023-04-25T11:38:15;22.77;;;9.10;;
76379;SDS011;65201;21.060;105.826;2023-04-25T11:40:41;18.70;;;8.83;;
76379;SDS011;65201;21.060;105.826;2023-04-25T11:46:06;17.48;;;9.05;;
76379;SDS011;65201;21.060;105.826;2023-04-25T11:48:39;28.88;;;8.65;;
76379;SDS011;65201;21.060;105.826;2023-04-25T11:51:05;26.10;;;9.10;;
76379;SDS011;65201;21.060;105.826;2023-04-25T11:53:32;27.13;;;8.70;;
76379;SDS011;65201;21.060;105.826;2023-04-25T11:56:00;23.02;;;8.52;;
76379;SDS011;65201;21.060;105.826;2023-04-25T11:58:26;22.08;;;8.70;;
76379;SDS011;65201;21.060;105.826;2023-04-25T12:00:53;22.30;;;8.40;;
76379;SDS011;65201;21.060;105.826;2023-04-25T12:03:19;27.75;;;9.45;;
76379;SDS011;65201;21.060;105.826;2023-04-25T12:05:46;22.80;;;8.60;;
76379;SDS011;65201;21.060;105.826;2023-04-25T12:08:13;21.98;;;8.80;;
76379;SDS011;65201;21.060;105.826;2023-04-25T12:10:40;25.08;;;8.48;;
76379;SDS011;65201;21.060;105.826;2023-04-25T12:13:23;20.40;;;8.30;;
76379;SDS011;65201;21.060;105.826;2023-04-25T12:15:49;25.83;;;8.23;;
76379;SDS011;65201;21.060;105.826;2023-04-25T12:18:19;28.97;;;8.60;;
76379;SDS011;65201;21.060;105.826;2023-04-25T12:20:46;28.13;;;8.93;;
76379;SDS011;65201;21.060;105.826;2023-04-25T12:23:13;28.15;;;8.50;;
76379;SDS011;65201;21.060;105.826;2023-04-25T12:25:40;22.45;;;8.00;;
76379;SDS011;65201;21.060;105.826;2023-04-25T12:30:57;25.60;;;8.40;;
76379;SDS011;65201;21.060;105.826;2023-04-25T12:33:25;28.10;;;8.52;;
76379;SDS011;65201;21.060;105.826;2023-04-25T12:35:52;21.85;;;8.82;;
76379;SDS011;65201;21.060;105.826;2023-04-25T12:38:21;20.08;;;7.95;;
76379;SDS011;65201;21.060;105.826;2023-04-25T12:40:57;24.33;;;8.73;;
76379;SDS011;65201;21.060;105.826;2023-04-25T12:43:33;18.70;;;7.83;;
76379;SDS011;65201;21.060;105.826;2023-04-25T12:45:59;21.65;;;8.23;;
76379;SDS011;65201;21.060;105.826;2023-04-25T12:48:26;20.35;;;8.15;;
76379;SDS011;65201;21.060;105.826;2023-04-25T12:50:52;20.63;;;7.38;;
76379;SDS011;65201;21.060;105.826;2023-04-25T12:53:19;30.45;;;7.97;;
76379;SDS011;65201;21.060;105.826;2023-04-25T12:55:45;17.87;;;7.17;;
76379;SDS011;65201;21.060;105.826;2023-04-25T12:58:15;18.85;;;7.50;;
76379;SDS011;65201;21.060;105.826;2023-04-25T13:00:42;18.88;;;8.00;;
76379;SDS011;65201;21.060;105.826;2023-04-25T13:03:11;18.45;;;7.25;;
76379;SDS011;65201;21.060;105.826;2023-04-25T13:05:38;15.80;;;7.38;;
76379;SDS011;65201;21.060;105.826;2023-04-25T13:08:05;17.03;;;7.17;;
76379;SDS011;65201;21.060;105.826;2023-04-25T13:10:32;20.10;;;7.47;;
76379;SDS011;65201;21.060;105.826;2023-04-25T13:12:59;14.65;;;7.05;;
76379;SDS011;65201;21.060;105.826;2023-04-25T13:15:26;16.50;;;7.00;;
76379;SDS011;65201;21.060;105.826;2023-04-25T13:17:52;11.38;;;6.93;;
76379;SDS011;65201;21.060;105.826;2023-04-25T13:20:19;14.17;;;7.07;;
76379;SDS011;65201;21.060;105.826;2023-04-25T13:22:50;18.30;;;7.18;;
76379;SDS011;65201;21.060;105.826;2023-04-25T13:25:17;15.68;;;7.22;;
76379;SDS011;65201;21.060;105.826;2023-04-25T13:27:50;18.02;;;7.38;;
76379;SDS011;65201;21.060;105.826;2023-04-25T13:30:16;17.90;;;7.28;;
76379;SDS011;65201;21.060;105.826;2023-04-25T13:32:43;14.70;;;6.80;;
76379;SDS011;65201;21.060;105.826;2023-04-25T13:35:11;21.17;;;7.22;;
76379;SDS011;65201;21.060;105.826;2023-04-25T13:37:38;16.98;;;7.40;;
76379;SDS011;65201;21.060;105.826;2023-04-25T13:40:07;16.08;;;7.25;;
76379;SDS011;65201;21.060;105.826;2023-04-25T13:42:35;17.58;;;7.28;;
76379;SDS011;65201;21.060;105.826;2023-04-25T13:45:02;18.00;;;7.37;;
76379;SDS011;65201;21.060;105.826;2023-04-25T13:47:28;13.27;;;7.38;;
76379;SDS011;65201;21.060;105.826;2023-04-25T13:49:55;12.75;;;7.28;;
76379;SDS011;65201;21.060;105.826;2023-04-25T13:52:22;14.73;;;7.45;;
76379;SDS011;65201;21.060;105.826;2023-04-25T13:54:49;17.98;;;6.80;;
76379;SDS011;65201;21.060;105.826;2023-04-25T13:57:17;16.40;;;6.83;;
76379;SDS011;65201;21.060;105.826;2023-04-25T13:59:43;13.60;;;7.50;;
76379;SDS011;65201;21.060;105.826;2023-04-25T14:02:20;17.25;;;7.85;;
76379;SDS011;65201;21.060;105.826;2023-04-25T14:04:46;16.10;;;7.05;;
76379;SDS011;65201;21.060;105.826;2023-04-25T14:07:13;11.63;;;6.88;;
76379;SDS011;65201;21.060;105.826;2023-04-25T14:09:41;13.20;;;7.40;;
76379;SDS011;65201;21.060;105.826;2023-04-25T14:12:08;13.82;;;7.43;;
76379;SDS011;65201;21.060;105.826;2023-04-25T14:14:37;11.35;;;6.97;;
76379;SDS011;65201;21.060;105.826;2023-04-25T14:17:03;14.38;;;7.10;;
76379;SDS011;65201;21.060;105.826;2023-04-25T14:19:29;12.82;;;6.95;;
76379;SDS011;65201;21.060;105.826;2023-04-25T14:21:56;14.03;;;7.70;;
76379;SDS011;65201;21.060;105.826;2023-04-25T14:24:22;13.73;;;6.65;;